Lubbock/Reese AFB, Texas
Current Conditions -  °F | °C
As of 5:53 AM on Friday 24 Oct 2014 (Local Time) from KLBB Reporting Station
Clear Clear  
Wind Chill: 52°   Ceiling: Unl
Heat Index: 52°   Visibility: 7mi
Dew Point: 51°   Wind: 5mph
Humidity: 97%   Direction: 290°WNW
Pressure: 30.13"   Gusts: NA
Location:  33.6°N, 102.07°W
Report Text: KLBB 241053Z 29004KT 7SM CLR 11/11 A3013 RMK AO2 SLP170 BR ALQDS T01110106
Loading
Personal Weather Stations






























Interactive Weather Map
Tropical Storm Tracking
New forecast layout! Learn more

10-Day Weather Forecast

Advertisements
Track Severe Weather on mobile